Aérodrome :
LOGIN :

S'inscrire | Disclaimer

   EN    FR    IT 

 










Légende :    VFR   VFR Marginal   IFR   IFR Intensif   IFR Très Intensif
Visi : 
Plafond : 
>= 8 km
>= 3000ft
5 à 8 km
1000 à 3000 ft
1500m à 5 km
500 à 1000 ft
800 à 1500m
200 à 500 ft
< 800m
< 200 ft
Symboles :   Orages  Brouillard  Fortes neiges  Fortes précipitations  Vent > 20 kt
SIGMETs :   Divers  Orages  Givrage  Turbulence  Onde Orograph.  Cendres Volcan.







- Altitude de l'aérodrome : 12 ft
- Code IATA : BCN


LEBL - Barcelone

DERNIER METAR :
  • 190141Z 06016KT 9999 VCTS -RA FEW025CB SCT045 20/15 Q1012 TEMPO 4000 TSRA

METARs EXPIRÉS :
  • 190130Z 06017KT 9999 VCTS -SHRA FEW025CB SCT050 21/14 Q1012 TEMPO 4000 SHRA
  • 190100Z 05018KT 9999 FEW025CB SCT050 21/14 Q1012 TEMPO 4000 SHRA
  • 190049Z 05017KT 9999 FEW025CB SCT050 21/14 Q1012 NOSIG
  • 190030Z 05018G28KT 030V090 9999 FEW050 21/13 Q1011 NOSIG
  • 190000Z 05017KT 9999 FEW050 21/13 Q1011 NOSIG
  • 182330Z 05014KT 9999 FEW040 21/14 Q1011 NOSIG
  • 182300Z 05018KT 9999 FEW040 21/15 Q1011 NOSIG

TAF AMD TAF LEBL
Valide du 19 à 01h jusqu'au 20 à 00h UTC


190137Z 1901/1924 05018KT 9999 SCT030 TX23/1912Z TN18/1906Z
TEMPO 1902/1920 3000 TSRA FEW024CB BKN030
BECMG 1919/1922 04007KT
Pas de NOTAMs connus pour ce terrain.
2 SIGMETs publiés pour la FIR Barcelona (LECB) :
 
Orages noyés dans la masse
LECB SIGMET 2 VALID 190100/190400 LEVA
LECB BARCELONA FIR/UIR EMBD TS OBS AT 0029Z WI N3940 E00330 - N4120 E004 - N4130 W001 - N3940 W00120 - N3940 E00330 TOP FL380 MOV W NC=
Turbulence forte
LECB SIGMET 1 VALID 190100/190400 LEVA
LECB BARCELONA FIR/UIR SEV TURB OBS AT 0026Z WI N3940 W00110 - N3940 E00040 - N3710 E00020 - N36 W00210 - N3940 W00110 FL180/340 STNR NC=



MET'MAP, la Météo Aéronautique d'un coup d'oeil ! - Copyright ORBIFLY Décembre 2007 - Disclaimer

ORBIFLY MET'MAP TEAM :

Programmation & Développement : Alexandra Zaïnal
Conception & Développement : Baudouin d'Aumeries
Co-Programmation & Développement : Marc-Olivier Méhu
Soutien technique & logistique : Manuel Goepfert

Contact : metmap@orbifly.com




SOURCES & CREDITS :

   NOAA